sensor_id;sensor_type;location;lat;lon;timestamp;pressure;altitude;pressure_sealevel;temperature;humidity
72118;BME280;59992;47.490;8.736;2023-03-13T00:01:36;96378.13;;;7.40;82.50
72118;BME280;59992;47.490;8.736;2023-03-13T00:04:24;96379.30;;;7.52;82.06
72118;BME280;59992;47.490;8.736;2023-03-13T00:07:12;96379.79;;;7.71;80.67
72118;BME280;59992;47.490;8.736;2023-03-13T00:10:01;96375.88;;;7.82;79.90
72118;BME280;59992;47.490;8.736;2023-03-13T00:12:49;96371.96;;;7.90;80.99
72118;BME280;59992;47.490;8.736;2023-03-13T00:15:37;96359.41;;;7.92;81.36
72118;BME280;59992;47.490;8.736;2023-03-13T00:18:25;96355.73;;;7.96;81.24
72118;BME280;59992;47.490;8.736;2023-03-13T00:21:12;96351.80;;;7.96;79.41
72118;BME280;59992;47.490;8.736;2023-03-13T00:24:01;96354.84;;;8.02;80.39
72118;BME280;59992;47.490;8.736;2023-03-13T00:26:49;96357.66;;;8.07;80.88
72118;BME280;59992;47.490;8.736;2023-03-13T00:29:40;96352.54;;;8.11;81.16
72118;BME280;59992;47.490;8.736;2023-03-13T00:32:28;96346.55;;;8.17;78.51
72118;BME280;59992;47.490;8.736;2023-03-13T00:35:16;96341.13;;;8.25;79.34
72118;BME280;59992;47.490;8.736;2023-03-13T00:38:04;96337.84;;;8.31;79.53
72118;BME280;59992;47.490;8.736;2023-03-13T00:40:59;96332.20;;;8.35;78.85
72118;BME280;59992;47.490;8.736;2023-03-13T00:43:47;96335.10;;;8.38;77.79
72118;BME280;59992;47.490;8.736;2023-03-13T00:46:37;96337.81;;;8.42;78.15
72118;BME280;59992;47.490;8.736;2023-03-13T00:49:25;96341.13;;;8.41;76.38
72118;BME280;59992;47.490;8.736;2023-03-13T00:52:13;96336.67;;;8.46;76.28
72118;BME280;59992;47.490;8.736;2023-03-13T00:55:01;96327.37;;;8.49;77.76
72118;BME280;59992;47.490;8.736;2023-03-13T00:57:50;96332.70;;;8.56;77.37
72118;BME280;59992;47.490;8.736;2023-03-13T01:00:38;96331.59;;;8.57;75.65
72118;BME280;59992;47.490;8.736;2023-03-13T01:03:26;96325.98;;;8.61;76.26
72118;BME280;59992;47.490;8.736;2023-03-13T01:06:17;96329.54;;;8.66;77.64
72118;BME280;59992;47.490;8.736;2023-03-13T01:09:06;96326.50;;;8.68;77.40
72118;BME280;59992;47.490;8.736;2023-03-13T01:11:54;96329.77;;;8.70;77.35
72118;BME280;59992;47.490;8.736;2023-03-13T01:14:42;96324.41;;;8.70;77.19
72118;BME280;59992;47.490;8.736;2023-03-13T01:17:30;96321.67;;;8.69;76.03
72118;BME280;59992;47.490;8.736;2023-03-13T01:20:18;96318.34;;;8.69;76.26
72118;BME280;59992;47.490;8.736;2023-03-13T01:23:06;96308.70;;;8.70;75.60
72118;BME280;59992;47.490;8.736;2023-03-13T01:25:55;96308.34;;;8.71;75.97
72118;BME280;59992;47.490;8.736;2023-03-13T01:28:44;96305.52;;;8.74;74.97
72118;BME280;59992;47.490;8.736;2023-03-13T01:31:34;96304.44;;;8.77;75.10
72118;BME280;59992;47.490;8.736;2023-03-13T01:34:22;96302.84;;;8.77;73.84
72118;BME280;59992;47.490;8.736;2023-03-13T01:37:11;96301.79;;;8.81;74.73
72118;BME280;59992;47.490;8.736;2023-03-13T01:39:59;96303.83;;;8.82;73.32
72118;BME280;59992;47.490;8.736;2023-03-13T01:42:52;96300.40;;;8.84;74.61
72118;BME280;59992;47.490;8.736;2023-03-13T01:46:13;96296.19;;;8.86;71.41
72118;BME280;59992;47.490;8.736;2023-03-13T01:49:05;96293.16;;;8.90;73.17
72118;BME280;59992;47.490;8.736;2023-03-13T01:51:58;96292.09;;;8.90;71.11
72118;BME280;59992;47.490;8.736;2023-03-13T01:54:50;96283.96;;;8.96;72.33
72118;BME280;59992;47.490;8.736;2023-03-13T01:57:41;96279.66;;;8.97;70.46
72118;BME280;59992;47.490;8.736;2023-03-13T02:00:33;96275.17;;;9.05;72.41
72118;BME280;59992;47.490;8.736;2023-03-13T02:03:23;96279.91;;;9.09;73.04
72118;BME280;59992;47.490;8.736;2023-03-13T02:06:13;96274.70;;;9.09;71.84
72118;BME280;59992;47.490;8.736;2023-03-13T02:09:03;96269.80;;;9.10;72.94
72118;BME280;59992;47.490;8.736;2023-03-13T02:11:57;96264.66;;;9.10;71.10
72118;BME280;59992;47.490;8.736;2023-03-13T02:14:50;96259.00;;;9.10;71.83
72118;BME280;59992;47.490;8.736;2023-03-13T02:17:39;96262.15;;;9.08;70.93
72118;BME280;59992;47.490;8.736;2023-03-13T02:20:28;96259.77;;;9.06;71.03
72118;BME280;59992;47.490;8.736;2023-03-13T02:23:21;96258.46;;;9.03;69.20
72118;BME280;59992;47.490;8.736;2023-03-13T02:26:13;96257.29;;;9.05;69.52
72118;BME280;59992;47.490;8.736;2023-03-13T02:29:01;96256.41;;;9.09;71.33
72118;BME280;59992;47.490;8.736;2023-03-13T02:31:50;96248.33;;;9.04;72.18
72118;BME280;59992;47.490;8.736;2023-03-13T02:34:39;96250.54;;;9.10;72.17
72118;BME280;59992;47.490;8.736;2023-03-13T02:37:30;96250.83;;;9.09;72.08
72118;BME280;59992;47.490;8.736;2023-03-13T02:40:23;96240.22;;;9.02;71.88
72118;BME280;59992;47.490;8.736;2023-03-13T02:43:14;96243.64;;;9.03;70.71
72118;BME280;59992;47.490;8.736;2023-03-13T02:46:07;96238.36;;;9.04;71.25
72118;BME280;59992;47.490;8.736;2023-03-13T02:48:56;96229.05;;;9.03;70.36
72118;BME280;59992;47.490;8.736;2023-03-13T02:51:45;96219.48;;;9.03;68.39
72118;BME280;59992;47.490;8.736;2023-03-13T02:54:35;96213.08;;;9.05;68.76
72118;BME280;59992;47.490;8.736;2023-03-13T02:57:25;96209.46;;;9.06;69.21
72118;BME280;59992;47.490;8.736;2023-03-13T03:00:14;96204.39;;;9.04;67.85
72118;BME280;59992;47.490;8.736;2023-03-13T03:03:04;96204.29;;;9.08;68.84
72118;BME280;59992;47.490;8.736;2023-03-13T03:05:51;96209.02;;;9.08;68.24
72118;BME280;59992;47.490;8.736;2023-03-13T03:08:40;96210.96;;;9.10;69.66
72118;BME280;59992;47.490;8.736;2023-03-13T03:11:30;96209.34;;;9.08;68.42
72118;BME280;59992;47.490;8.736;2023-03-13T03:14:18;96213.36;;;9.09;69.97
72118;BME280;59992;47.490;8.736;2023-03-13T03:17:07;96216.59;;;9.08;68.94
72118;BME280;59992;47.490;8.736;2023-03-13T03:19:54;96215.48;;;9.03;68.73
72118;BME280;59992;47.490;8.736;2023-03-13T03:22:42;96214.90;;;9.06;67.55
72118;BME280;59992;47.490;8.736;2023-03-13T03:25:31;96214.85;;;9.08;68.53
72118;BME280;59992;47.490;8.736;2023-03-13T03:28:19;96219.82;;;9.12;67.94
72118;BME280;59992;47.490;8.736;2023-03-13T03:31:08;96217.47;;;9.18;68.93
72118;BME280;59992;47.490;8.736;2023-03-13T03:33:57;96215.19;;;9.16;66.97
72118;BME280;59992;47.490;8.736;2023-03-13T03:36:45;96208.26;;;9.19;67.38
72118;BME280;59992;47.490;8.736;2023-03-13T03:39:33;96210.03;;;9.21;67.97
72118;BME280;59992;47.490;8.736;2023-03-13T03:42:22;96205.84;;;9.24;68.99
72118;BME280;59992;47.490;8.736;2023-03-13T03:45:11;96202.92;;;9.26;68.45
72118;BME280;59992;47.490;8.736;2023-03-13T03:47:59;96201.48;;;9.26;68.13
72118;BME280;59992;47.490;8.736;2023-03-13T03:50:47;96200.84;;;9.30;68.10
72118;BME280;59992;47.490;8.736;2023-03-13T03:53:36;96198.06;;;9.31;66.80
72118;BME280;59992;47.490;8.736;2023-03-13T03:56:24;96197.36;;;9.35;67.12
72118;BME280;59992;47.490;8.736;2023-03-13T03:59:12;96204.65;;;9.38;67.39
72118;BME280;59992;47.490;8.736;2023-03-13T04:02:00;96206.09;;;9.39;67.48
72118;BME280;59992;47.490;8.736;2023-03-13T04:04:48;96209.43;;;9.40;67.23
72118;BME280;59992;47.490;8.736;2023-03-13T04:07:36;96216.98;;;9.39;66.73
72118;BME280;59992;47.490;8.736;2023-03-13T04:10:24;96217.52;;;9.41;68.03
72118;BME280;59992;47.490;8.736;2023-03-13T04:13:12;96218.75;;;9.42;67.55
72118;BME280;59992;47.490;8.736;2023-03-13T04:16:06;96214.75;;;9.42;67.67
72118;BME280;59992;47.490;8.736;2023-03-13T04:18:54;96219.45;;;9.43;68.17
72118;BME280;59992;47.490;8.736;2023-03-13T04:21:43;96222.16;;;9.43;67.98
72118;BME280;59992;47.490;8.736;2023-03-13T04:24:31;96210.45;;;9.44;68.29
72118;BME280;59992;47.490;8.736;2023-03-13T04:27:20;96193.30;;;9.44;68.08
72118;BME280;59992;47.490;8.736;2023-03-13T04:30:10;96177.64;;;9.43;66.64
72118;BME280;59992;47.490;8.736;2023-03-13T04:32:58;96182.32;;;9.42;65.72
72118;BME280;59992;47.490;8.736;2023-03-13T04:35:46;96185.67;;;9.45;66.53
72118;BME280;59992;47.490;8.736;2023-03-13T04:38:34;96181.73;;;9.45;66.43
72118;BME280;59992;47.490;8.736;2023-03-13T04:41:23;96176.90;;;9.43;65.71
72118;BME280;59992;47.490;8.736;2023-03-13T04:44:11;96180.13;;;9.50;67.90
72118;BME280;59992;47.490;8.736;2023-03-13T04:46:59;96179.95;;;9.54;67.73
72118;BME280;59992;47.490;8.736;2023-03-13T04:49:47;96176.66;;;9.57;67.17
72118;BME280;59992;47.490;8.736;2023-03-13T04:52:35;96179.71;;;9.60;66.25
72118;BME280;59992;47.490;8.736;2023-03-13T04:55:23;96177.64;;;9.65;67.00
72118;BME280;59992;47.490;8.736;2023-03-13T04:58:12;96176.02;;;9.69;65.97
72118;BME280;59992;47.490;8.736;2023-03-13T05:01:00;96173.13;;;9.74;67.19
72118;BME280;59992;47.490;8.736;2023-03-13T05:03:48;96170.96;;;9.77;67.23
72118;BME280;59992;47.490;8.736;2023-03-13T05:06:36;96168.24;;;9.76;66.61
72118;BME280;59992;47.490;8.736;2023-03-13T05:09:25;96166.05;;;9.77;66.58
72118;BME280;59992;47.490;8.736;2023-03-13T05:12:13;96163.37;;;9.74;65.71
72118;BME280;59992;47.490;8.736;2023-03-13T05:15:01;96164.48;;;9.78;65.74
72118;BME280;59992;47.490;8.736;2023-03-13T05:17:50;96168.58;;;9.81;65.58
72118;BME280;59992;47.490;8.736;2023-03-13T05:20:38;96168.15;;;9.83;66.74
72118;BME280;59992;47.490;8.736;2023-03-13T05:23:27;96156.59;;;9.84;66.73
72118;BME280;59992;47.490;8.736;2023-03-13T05:26:15;96153.27;;;9.84;64.98
72118;BME280;59992;47.490;8.736;2023-03-13T05:29:03;96151.09;;;9.86;64.79
72118;BME280;59992;47.490;8.736;2023-03-13T05:31:51;96153.00;;;9.88;65.33
72118;BME280;59992;47.490;8.736;2023-03-13T05:34:40;96151.80;;;9.90;66.37
72118;BME280;59992;47.490;8.736;2023-03-13T05:37:28;96145.29;;;9.88;64.65
72118;BME280;59992;47.490;8.736;2023-03-13T05:40:16;96142.66;;;9.90;65.56
72118;BME280;59992;47.490;8.736;2023-03-13T05:43:04;96140.92;;;9.91;65.86
72118;BME280;59992;47.490;8.736;2023-03-13T05:45:52;96144.26;;;9.92;65.44
72118;BME280;59992;47.490;8.736;2023-03-13T05:48:40;96143.89;;;9.92;63.73
72118;BME280;59992;47.490;8.736;2023-03-13T05:51:28;96138.10;;;9.89;64.92
72118;BME280;59992;47.490;8.736;2023-03-13T05:54:16;96151.90;;;9.92;63.87
72118;BME280;59992;47.490;8.736;2023-03-13T05:57:05;96148.88;;;9.93;63.54
72118;BME280;59992;47.490;8.736;2023-03-13T05:59:54;96145.48;;;9.93;62.71
72118;BME280;59992;47.490;8.736;2023-03-13T06:02:42;96137.25;;;9.95;61.34
72118;BME280;59992;47.490;8.736;2023-03-13T06:05:30;96141.24;;;10.03;63.14
72118;BME280;59992;47.490;8.736;2023-03-13T06:08:19;96138.75;;;10.03;61.89
72118;BME280;59992;47.490;8.736;2023-03-13T06:11:07;96137.23;;;10.03;62.01
72118;BME280;59992;47.490;8.736;2023-03-13T06:13:55;96131.80;;;10.04;62.00
72118;BME280;59992;47.490;8.736;2023-03-13T06:16:43;96128.23;;;10.04;62.36
72118;BME280;59992;47.490;8.736;2023-03-13T06:19:31;96128.31;;;10.05;62.58
72118;BME280;59992;47.490;8.736;2023-03-13T06:22:19;96126.86;;;10.02;61.91
72118;BME280;59992;47.490;8.736;2023-03-13T06:25:09;96122.57;;;10.05;62.40
72118;BME280;59992;47.490;8.736;2023-03-13T06:27:57;96124.77;;;10.07;61.52
72118;BME280;59992;47.490;8.736;2023-03-13T06:30:45;96120.32;;;10.05;62.29
72118;BME280;59992;47.490;8.736;2023-03-13T06:33:33;96128.05;;;10.14;61.58
72118;BME280;59992;47.490;8.736;2023-03-13T06:36:22;96128.31;;;10.20;62.64
72118;BME280;59992;47.490;8.736;2023-03-13T06:39:11;96128.81;;;10.27;62.02
72118;BME280;59992;47.490;8.736;2023-03-13T06:42:00;96129.16;;;10.33;62.44
72118;BME280;59992;47.490;8.736;2023-03-13T06:44:48;96131.23;;;10.36;61.36
72118;BME280;59992;47.490;8.736;2023-03-13T06:47:37;96127.91;;;10.40;61.04
72118;BME280;59992;47.490;8.736;2023-03-13T06:50:25;96124.55;;;10.47;59.14
72118;BME280;59992;47.490;8.736;2023-03-13T06:53:14;96124.93;;;10.57;60.58
72118;BME280;59992;47.490;8.736;2023-03-13T06:56:04;96128.81;;;10.60;60.49
72118;BME280;59992;47.490;8.736;2023-03-13T06:58:52;96133.61;;;10.66;59.77
72118;BME280;59992;47.490;8.736;2023-03-13T07:01:40;96129.28;;;10.64;59.61
72118;BME280;59992;47.490;8.736;2023-03-13T07:04:28;96125.00;;;10.72;60.09
72118;BME280;59992;47.490;8.736;2023-03-13T07:07:17;96120.64;;;10.75;59.91
72118;BME280;59992;47.490;8.736;2023-03-13T07:10:07;96109.45;;;10.80;59.24
72118;BME280;59992;47.490;8.736;2023-03-13T07:12:56;96096.92;;;10.91;59.52
72118;BME280;59992;47.490;8.736;2023-03-13T07:15:45;96089.52;;;10.96;58.44
72118;BME280;59992;47.490;8.736;2023-03-13T07:18:33;96093.38;;;11.19;59.33
72118;BME280;59992;47.490;8.736;2023-03-13T07:21:22;96091.30;;;11.41;59.56
72118;BME280;59992;47.490;8.736;2023-03-13T07:24:10;96095.01;;;11.68;57.69
72118;BME280;59992;47.490;8.736;2023-03-13T07:26:59;96094.42;;;12.09;57.13
72118;BME280;59992;47.490;8.736;2023-03-13T07:29:47;96102.38;;;12.30;57.27
72118;BME280;59992;47.490;8.736;2023-03-13T07:32:35;96103.48;;;12.46;56.02
72118;BME280;59992;47.490;8.736;2023-03-13T07:35:23;96105.09;;;12.76;59.18
72118;BME280;59992;47.490;8.736;2023-03-13T07:38:12;96107.45;;;13.03;56.23
72118;BME280;59992;47.490;8.736;2023-03-13T07:41:00;96108.09;;;13.15;54.43
72118;BME280;59992;47.490;8.736;2023-03-13T07:43:48;96111.74;;;13.30;57.68
72118;BME280;59992;47.490;8.736;2023-03-13T07:46:37;96122.23;;;13.34;55.31
72118;BME280;59992;47.490;8.736;2023-03-13T07:49:25;96124.54;;;13.42;55.87
72118;BME280;59992;47.490;8.736;2023-03-13T07:52:14;96121.70;;;13.46;54.74
72118;BME280;59992;47.490;8.736;2023-03-13T07:55:02;96126.75;;;13.41;55.14
72118;BME280;59992;47.490;8.736;2023-03-13T07:57:50;96130.69;;;13.59;53.36
72118;BME280;59992;47.490;8.736;2023-03-13T08:00:38;96126.52;;;13.69;51.91
72118;BME280;59992;47.490;8.736;2023-03-13T08:03:26;96122.23;;;13.84;52.73
72118;BME280;59992;47.490;8.736;2023-03-13T08:06:18;96123.44;;;14.06;51.61
72118;BME280;59992;47.490;8.736;2023-03-13T08:09:07;96126.02;;;14.26;51.95
72118;BME280;59992;47.490;8.736;2023-03-13T08:11:56;96122.25;;;14.34;52.61
72118;BME280;59992;47.490;8.736;2023-03-13T08:14:44;96116.75;;;14.36;51.81
72118;BME280;59992;47.490;8.736;2023-03-13T08:17:32;96114.67;;;14.45;51.50
72118;BME280;59992;47.490;8.736;2023-03-13T08:20:21;96117.80;;;14.54;52.86
72118;BME280;59992;47.490;8.736;2023-03-13T08:23:09;96115.54;;;14.43;50.55
72118;BME280;59992;47.490;8.736;2023-03-13T08:26:01;96113.33;;;14.15;50.40
72118;BME280;59992;47.490;8.736;2023-03-13T08:28:53;96114.54;;;14.15;51.44
72118;BME280;59992;47.490;8.736;2023-03-13T08:31:44;96118.95;;;14.16;51.27
72118;BME280;59992;47.490;8.736;2023-03-13T08:34:33;96116.73;;;14.16;50.82
72118;BME280;59992;47.490;8.736;2023-03-13T08:37:23;96116.18;;;14.17;50.61
72118;BME280;59992;47.490;8.736;2023-03-13T08:40:12;96108.23;;;14.22;50.31
72118;BME280;59992;47.490;8.736;2023-03-13T08:43:00;96099.23;;;14.24;50.57
72118;BME280;59992;47.490;8.736;2023-03-13T08:45:54;96093.15;;;14.05;51.08
72118;BME280;59992;47.490;8.736;2023-03-13T08:48:42;96088.56;;;14.25;51.04
72118;BME280;59992;47.490;8.736;2023-03-13T08:51:31;96087.77;;;14.30;50.56
72118;BME280;59992;47.490;8.736;2023-03-13T08:54:19;96076.97;;;14.44;50.30
72118;BME280;59992;47.490;8.736;2023-03-13T08:57:07;96076.34;;;14.53;49.94
72118;BME280;59992;47.490;8.736;2023-03-13T08:59:55;96077.21;;;14.80;49.68
72118;BME280;59992;47.490;8.736;2023-03-13T09:02:44;96068.75;;;14.85;49.86
72118;BME280;59992;47.490;8.736;2023-03-13T09:05:32;96062.08;;;15.01;48.61
72118;BME280;59992;47.490;8.736;2023-03-13T09:08:20;96051.47;;;15.02;49.09
72118;BME280;59992;47.490;8.736;2023-03-13T09:11:10;96054.96;;;15.26;49.23
72118;BME280;59992;47.490;8.736;2023-03-13T09:13:59;96043.21;;;15.09;48.20
72118;BME280;59992;47.490;8.736;2023-03-13T09:16:47;96044.49;;;15.22;48.46
72118;BME280;59992;47.490;8.736;2023-03-13T09:19:36;96035.41;;;15.40;49.27
72118;BME280;59992;47.490;8.736;2023-03-13T09:22:24;96035.48;;;15.45;49.22
72118;BME280;59992;47.490;8.736;2023-03-13T09:25:12;96038.88;;;15.54;48.07
72118;BME280;59992;47.490;8.736;2023-03-13T09:28:00;96024.95;;;15.75;47.67
72118;BME280;59992;47.490;8.736;2023-03-13T09:30:48;96019.05;;;15.77;47.60
72118;BME280;59992;47.490;8.736;2023-03-13T09:33:37;96001.83;;;15.89;47.42
72118;BME280;59992;47.490;8.736;2023-03-13T09:36:26;96000.08;;;15.93;47.12
72118;BME280;59992;47.490;8.736;2023-03-13T09:39:15;95998.81;;;15.95;46.92
72118;BME280;59992;47.490;8.736;2023-03-13T09:42:08;95990.27;;;15.99;45.45
72118;BME280;59992;47.490;8.736;2023-03-13T09:45:04;95990.20;;;16.04;46.84
72118;BME280;59992;47.490;8.736;2023-03-13T09:47:56;95988.76;;;16.15;46.62
72118;BME280;59992;47.490;8.736;2023-03-13T09:50:53;95984.38;;;16.17;46.84
72118;BME280;59992;47.490;8.736;2023-03-13T09:53:45;95985.13;;;16.09;46.02
72118;BME280;59992;47.490;8.736;2023-03-13T09:56:42;95975.88;;;16.05;45.69
72118;BME280;59992;47.490;8.736;2023-03-13T09:59:40;95970.54;;;16.00;46.71
72118;BME280;59992;47.490;8.736;2023-03-13T10:02:34;95969.66;;;16.11;46.63
72118;BME280;59992;47.490;8.736;2023-03-13T10:05:25;95958.63;;;16.20;45.73
72118;BME280;59992;47.490;8.736;2023-03-13T10:08:17;95959.65;;;16.27;47.13
72118;BME280;59992;47.490;8.736;2023-03-13T10:11:08;95954.19;;;16.37;46.32
72118;BME280;59992;47.490;8.736;2023-03-13T10:14:01;95947.33;;;16.40;45.87
72118;BME280;59992;47.490;8.736;2023-03-13T10:16:55;95951.60;;;16.49;46.24
72118;BME280;59992;47.490;8.736;2023-03-13T10:19:50;95946.79;;;16.57;46.08
72118;BME280;59992;47.490;8.736;2023-03-13T10:22:44;95950.05;;;16.42;45.44
72118;BME280;59992;47.490;8.736;2023-03-13T10:25:36;95938.64;;;16.60;47.34
72118;BME280;59992;47.490;8.736;2023-03-13T10:28:29;95922.20;;;16.67;45.34
72118;BME280;59992;47.490;8.736;2023-03-13T10:31:23;95918.67;;;16.74;46.91
72118;BME280;59992;47.490;8.736;2023-03-13T10:34:13;95919.90;;;16.78;47.56
72118;BME280;59992;47.490;8.736;2023-03-13T10:37:02;95912.72;;;16.84;46.58
72118;BME280;59992;47.490;8.736;2023-03-13T10:39:50;95905.92;;;16.97;46.59
72118;BME280;59992;47.490;8.736;2023-03-13T10:42:42;95901.23;;;16.95;46.50
72118;BME280;59992;47.490;8.736;2023-03-13T10:45:34;95893.13;;;17.05;47.56
72118;BME280;59992;47.490;8.736;2023-03-13T10:48:24;95892.53;;;17.21;48.02
72118;BME280;59992;47.490;8.736;2023-03-13T10:51:21;95890.52;;;17.34;48.11
72118;BME280;59992;47.490;8.736;2023-03-13T10:54:14;95892.20;;;17.40;47.33
72118;BME280;59992;47.490;8.736;2023-03-13T10:57:24;95887.86;;;17.39;48.10
72118;BME280;59992;47.490;8.736;2023-03-13T11:00:29;95887.17;;;17.50;47.07
72118;BME280;59992;47.490;8.736;2023-03-13T11:03:22;95882.88;;;17.54;46.36
72118;BME280;59992;47.490;8.736;2023-03-13T11:06:24;95875.42;;;17.44;46.20
72118;BME280;59992;47.490;8.736;2023-03-13T11:09:15;95861.20;;;17.32;46.40
72118;BME280;59992;47.490;8.736;2023-03-13T11:12:07;95851.94;;;17.40;47.81
72118;BME280;59992;47.490;8.736;2023-03-13T11:14:59;95860.32;;;17.45;49.33
72118;BME280;59992;47.490;8.736;2023-03-13T11:17:53;95844.50;;;17.41;47.06
72118;BME280;59992;47.490;8.736;2023-03-13T11:20:46;95831.84;;;17.42;47.99
72118;BME280;59992;47.490;8.736;2023-03-13T11:23:39;95823.77;;;17.59;48.15
72118;BME280;59992;47.490;8.736;2023-03-13T11:26:33;95818.53;;;17.69;48.29
72118;BME280;59992;47.490;8.736;2023-03-13T11:29:27;95810.33;;;17.83;48.50
72118;BME280;59992;47.490;8.736;2023-03-13T11:32:24;95804.44;;;17.91;47.50
72118;BME280;59992;47.490;8.736;2023-03-13T11:35:25;95798.09;;;18.01;48.19
72118;BME280;59992;47.490;8.736;2023-03-13T11:38:18;95793.92;;;18.13;47.72
72118;BME280;59992;47.490;8.736;2023-03-13T11:41:20;95788.72;;;18.28;48.10
72118;BME280;59992;47.490;8.736;2023-03-13T11:44:36;95785.95;;;18.42;48.21
72118;BME280;59992;47.490;8.736;2023-03-13T11:47:39;95782.90;;;18.54;47.55
72118;BME280;59992;47.490;8.736;2023-03-13T11:50:43;95775.75;;;18.55;46.50
72118;BME280;59992;47.490;8.736;2023-03-13T11:53:46;95768.33;;;18.57;45.82
72118;BME280;59992;47.490;8.736;2023-03-13T11:56:44;95762.05;;;18.64;45.81
72118;BME280;59992;47.490;8.736;2023-03-13T11:59:41;95755.66;;;18.62;46.06
72118;BME280;59992;47.490;8.736;2023-03-13T12:02:34;95743.09;;;18.62;45.69
72118;BME280;59992;47.490;8.736;2023-03-13T12:05:24;95744.40;;;18.69;46.21
72118;BME280;59992;47.490;8.736;2023-03-13T12:08:18;95737.08;;;18.55;45.71
72118;BME280;59992;47.490;8.736;2023-03-13T12:11:14;95727.88;;;18.58;45.92
72118;BME280;59992;47.490;8.736;2023-03-13T12:14:08;95724.55;;;18.56;46.22
72118;BME280;59992;47.490;8.736;2023-03-13T12:17:00;95721.27;;;18.42;45.11
72118;BME280;59992;47.490;8.736;2023-03-13T12:19:54;95709.11;;;18.20;45.93
72118;BME280;59992;47.490;8.736;2023-03-13T12:22:51;95701.19;;;18.35;46.66
72118;BME280;59992;47.490;8.736;2023-03-13T12:25:46;95695.04;;;18.41;46.42
72118;BME280;59992;47.490;8.736;2023-03-13T12:28:38;95688.88;;;18.42;46.79
72118;BME280;59992;47.490;8.736;2023-03-13T12:31:32;95685.54;;;18.51;47.01
72118;BME280;59992;47.490;8.736;2023-03-13T12:34:28;95672.10;;;18.49;47.43
72118;BME280;59992;47.490;8.736;2023-03-13T12:37:23;95666.48;;;18.61;46.90
72118;BME280;59992;47.490;8.736;2023-03-13T12:40:22;95659.01;;;18.74;47.26
72118;BME280;59992;47.490;8.736;2023-03-13T12:43:17;95650.46;;;18.86;46.77
72118;BME280;59992;47.490;8.736;2023-03-13T12:46:22;95644.34;;;18.88;46.62
72118;BME280;59992;47.490;8.736;2023-03-13T12:49:30;95639.36;;;18.87;45.97
72118;BME280;59992;47.490;8.736;2023-03-13T12:52:37;95627.96;;;18.84;45.92
72118;BME280;59992;47.490;8.736;2023-03-13T12:55:49;95615.39;;;18.87;46.06
72118;BME280;59992;47.490;8.736;2023-03-13T12:58:46;95607.50;;;18.90;46.40
72118;BME280;59992;47.490;8.736;2023-03-13T13:01:39;95604.23;;;18.87;45.91
72118;BME280;59992;47.490;8.736;2023-03-13T13:04:30;95590.80;;;18.94;46.23
72118;BME280;59992;47.490;8.736;2023-03-13T13:07:23;95577.20;;;18.94;44.65
72118;BME280;59992;47.490;8.736;2023-03-13T13:10:18;95561.60;;;18.95;45.55
72118;BME280;59992;47.490;8.736;2023-03-13T13:13:27;95545.98;;;18.96;45.00
72118;BME280;59992;47.490;8.736;2023-03-13T13:16:19;95541.92;;;19.00;45.43
72118;BME280;59992;47.490;8.736;2023-03-13T13:22:48;95525.49;;;19.02;43.88
72118;BME280;59992;47.490;8.736;2023-03-13T13:25:36;95519.62;;;18.97;45.04
72118;BME280;59992;47.490;8.736;2023-03-13T13:28:35;95502.42;;;18.97;44.42
72118;BME280;59992;47.490;8.736;2023-03-13T13:31:44;95502.61;;;19.09;44.69
72118;BME280;59992;47.490;8.736;2023-03-13T13:35:00;95494.45;;;19.14;43.51
72118;BME280;59992;47.490;8.736;2023-03-13T13:37:49;95502.36;;;19.19;42.99
72118;BME280;59992;47.490;8.736;2023-03-13T13:40:37;95491.95;;;19.13;42.33
72118;BME280;59992;47.490;8.736;2023-03-13T13:43:25;95484.58;;;19.15;43.79
72118;BME280;59992;47.490;8.736;2023-03-13T13:46:22;95480.60;;;19.13;42.87
72118;BME280;59992;47.490;8.736;2023-03-13T13:49:15;95476.25;;;19.22;42.64
72118;BME280;59992;47.490;8.736;2023-03-13T13:52:34;95473.55;;;19.26;43.55
72118;BME280;59992;47.490;8.736;2023-03-13T13:55:33;95463.25;;;19.28;43.92
72118;BME280;59992;47.490;8.736;2023-03-13T13:58:29;95456.70;;;19.29;42.20
72118;BME280;59992;47.490;8.736;2023-03-13T14:01:19;95447.73;;;19.27;42.46
72118;BME280;59992;47.490;8.736;2023-03-13T14:04:13;95447.20;;;19.23;42.84
72118;BME280;59992;47.490;8.736;2023-03-13T14:07:04;95441.27;;;19.27;43.04
72118;BME280;59992;47.490;8.736;2023-03-13T14:09:59;95441.46;;;19.26;42.83
72118;BME280;59992;47.490;8.736;2023-03-13T14:12:52;95431.78;;;19.20;43.66
72118;BME280;59992;47.490;8.736;2023-03-13T14:15:45;95427.02;;;19.16;43.66
72118;BME280;59992;47.490;8.736;2023-03-13T14:18:33;95422.64;;;19.09;43.51
72118;BME280;59992;47.490;8.736;2023-03-13T14:21:24;95417.96;;;19.18;43.60
72118;BME280;59992;47.490;8.736;2023-03-13T14:24:14;95405.41;;;19.23;42.54
72118;BME280;59992;47.490;8.736;2023-03-13T14:27:14;95403.86;;;19.24;42.85
72118;BME280;59992;47.490;8.736;2023-03-13T14:30:03;95409.45;;;19.34;42.89
72118;BME280;59992;47.490;8.736;2023-03-13T14:32:53;95403.55;;;19.42;42.42
72118;BME280;59992;47.490;8.736;2023-03-13T14:35:41;95388.84;;;19.46;42.29
72118;BME280;59992;47.490;8.736;2023-03-13T14:38:30;95384.94;;;19.46;41.79
72118;BME280;59992;47.490;8.736;2023-03-13T14:41:30;95375.95;;;19.27;42.03
72118;BME280;59992;47.490;8.736;2023-03-13T14:44:23;95376.27;;;19.32;43.18
72118;BME280;59992;47.490;8.736;2023-03-13T14:47:22;95364.39;;;19.32;42.48
72118;BME280;59992;47.490;8.736;2023-03-13T14:50:13;95355.55;;;19.32;42.97
72118;BME280;59992;47.490;8.736;2023-03-13T14:53:04;95347.85;;;19.31;43.69
72118;BME280;59992;47.490;8.736;2023-03-13T14:56:13;95341.38;;;19.16;43.73
72118;BME280;59992;47.490;8.736;2023-03-13T14:59:15;95331.39;;;19.07;43.31
72118;BME280;59992;47.490;8.736;2023-03-13T15:02:15;95337.47;;;18.99;44.68
72118;BME280;59992;47.490;8.736;2023-03-13T15:05:28;95335.66;;;18.97;44.94
72118;BME280;59992;47.490;8.736;2023-03-13T15:08:16;95327.85;;;19.01;45.29
72118;BME280;59992;47.490;8.736;2023-03-13T15:11:18;95313.55;;;19.04;44.93
72118;BME280;59992;47.490;8.736;2023-03-13T15:17:26;95300.01;;;19.18;44.55
72118;BME280;59992;47.490;8.736;2023-03-13T15:20:16;95297.85;;;19.12;44.33